sensor_id;sensor_type;location;lat;lon;timestamp;pressure;altitude;pressure_sealevel;temperature;humidity
78337;BME280;67610;51.588;7.002;2023-03-12T00:01:26;100512.28;;;4.23;53.27
78337;BME280;67610;51.588;7.002;2023-03-12T00:03:54;100509.69;;;4.23;53.03
78337;BME280;67610;51.588;7.002;2023-03-12T00:06:20;100505.44;;;4.22;52.82
78337;BME280;67610;51.588;7.002;2023-03-12T00:08:47;100515.00;;;4.22;52.82
78337;BME280;67610;51.588;7.002;2023-03-12T00:11:15;100502.34;;;4.17;52.99
78337;BME280;67610;51.588;7.002;2023-03-12T00:13:41;100506.81;;;4.15;53.08
78337;BME280;67610;51.588;7.002;2023-03-12T00:16:10;100504.31;;;4.14;53.05
78337;BME280;67610;51.588;7.002;2023-03-12T00:18:36;100507.88;;;4.13;53.00
78337;BME280;67610;51.588;7.002;2023-03-12T00:21:01;100509.53;;;4.14;52.88
78337;BME280;67610;51.588;7.002;2023-03-12T00:23:27;100506.91;;;4.14;52.86
78337;BME280;67610;51.588;7.002;2023-03-12T00:25:53;100500.06;;;4.13;52.85
78337;BME280;67610;51.588;7.002;2023-03-12T00:28:18;100492.97;;;4.15;52.95
78337;BME280;67610;51.588;7.002;2023-03-12T00:30:44;100484.25;;;4.16;52.63
78337;BME280;67610;51.588;7.002;2023-03-12T00:33:10;100480.81;;;4.15;52.31
78337;BME280;67610;51.588;7.002;2023-03-12T00:35:37;100484.34;;;4.14;52.59
78337;BME280;67610;51.588;7.002;2023-03-12T00:38:03;100475.94;;;4.11;52.77
78337;BME280;67610;51.588;7.002;2023-03-12T00:40:28;100479.97;;;4.15;52.72
78337;BME280;67610;51.588;7.002;2023-03-12T00:42:53;100477.38;;;4.15;52.70
78337;BME280;67610;51.588;7.002;2023-03-12T00:45:19;100477.50;;;4.13;53.13
78337;BME280;67610;51.588;7.002;2023-03-12T00:47:44;100475.38;;;4.18;53.08
78337;BME280;67610;51.588;7.002;2023-03-12T00:50:09;100462.94;;;4.22;52.71
78337;BME280;67610;51.588;7.002;2023-03-12T00:52:35;100467.44;;;4.20;52.83
78337;BME280;67610;51.588;7.002;2023-03-12T00:55:00;100461.19;;;4.22;52.73
78337;BME280;67610;51.588;7.002;2023-03-12T00:57:26;100462.03;;;4.23;52.68
78337;BME280;67610;51.588;7.002;2023-03-12T00:59:51;100461.19;;;4.22;52.96
78337;BME280;67610;51.588;7.002;2023-03-12T01:02:16;100463.66;;;4.24;52.59
78337;BME280;67610;51.588;7.002;2023-03-12T01:04:42;100458.31;;;4.25;52.56
78337;BME280;67610;51.588;7.002;2023-03-12T01:07:07;100454.91;;;4.25;52.57
78337;BME280;67610;51.588;7.002;2023-03-12T01:09:32;100459.06;;;4.28;52.78
78337;BME280;67610;51.588;7.002;2023-03-12T01:11:58;100449.84;;;4.35;52.25
78337;BME280;67610;51.588;7.002;2023-03-12T01:14:23;100453.38;;;4.34;52.16
78337;BME280;67610;51.588;7.002;2023-03-12T01:16:49;100442.13;;;4.33;52.05
78337;BME280;67610;51.588;7.002;2023-03-12T01:19:14;100445.69;;;4.32;51.99
78337;BME280;67610;51.588;7.002;2023-03-12T01:21:39;100446.84;;;4.28;52.34
78337;BME280;67610;51.588;7.002;2023-03-12T01:24:05;100443.31;;;4.29;52.54
78337;BME280;67610;51.588;7.002;2023-03-12T01:26:31;100444.16;;;4.30;52.33
78337;BME280;67610;51.588;7.002;2023-03-12T01:28:56;100440.50;;;4.32;52.35
78337;BME280;67610;51.588;7.002;2023-03-12T01:31:23;100443.91;;;4.33;51.87
78337;BME280;67610;51.588;7.002;2023-03-12T01:33:50;100436.94;;;4.33;52.05
78337;BME280;67610;51.588;7.002;2023-03-12T01:36:19;100436.94;;;4.33;52.24
78337;BME280;67610;51.588;7.002;2023-03-12T01:38:45;100433.41;;;4.34;52.11
78337;BME280;67610;51.588;7.002;2023-03-12T01:41:11;100428.75;;;4.38;52.02
78337;BME280;67610;51.588;7.002;2023-03-12T01:43:37;100424.41;;;4.38;51.99
78337;BME280;67610;51.588;7.002;2023-03-12T01:46:23;100417.50;;;4.37;52.04
78337;BME280;67610;51.588;7.002;2023-03-12T01:49:00;100414.59;;;4.42;51.71
78337;BME280;67610;51.588;7.002;2023-03-12T01:51:32;100413.84;;;4.40;51.77
78337;BME280;67610;51.588;7.002;2023-03-12T01:54:01;100417.28;;;4.40;51.83
78337;BME280;67610;51.588;7.002;2023-03-12T01:56:31;100415.41;;;4.42;51.72
78337;BME280;67610;51.588;7.002;2023-03-12T01:59:00;100410.91;;;4.44;51.59
78337;BME280;67610;51.588;7.002;2023-03-12T02:01:26;100400.38;;;4.46;51.51
78337;BME280;67610;51.588;7.002;2023-03-12T02:03:54;100407.72;;;4.52;51.20
78337;BME280;67610;51.588;7.002;2023-03-12T02:06:25;100405.22;;;4.50;50.99
78337;BME280;67610;51.588;7.002;2023-03-12T02:08:54;100398.25;;;4.51;51.10
78337;BME280;67610;51.588;7.002;2023-03-12T02:11:20;100390.09;;;4.55;51.00
78337;BME280;67610;51.588;7.002;2023-03-12T02:13:46;100387.22;;;4.58;51.01
78337;BME280;67610;51.588;7.002;2023-03-12T02:16:11;100385.31;;;4.60;50.42
78337;BME280;67610;51.588;7.002;2023-03-12T02:18:37;100382.72;;;4.60;50.25
78337;BME280;67610;51.588;7.002;2023-03-12T02:21:19;100395.03;;;4.58;50.25
78337;BME280;67610;51.588;7.002;2023-03-12T02:26:29;100373.97;;;4.61;50.78
78337;BME280;67610;51.588;7.002;2023-03-12T02:28:55;100378.81;;;4.66;50.36
78337;BME280;67610;51.588;7.002;2023-03-12T02:31:26;100372.06;;;4.63;50.30
78337;BME280;67610;51.588;7.002;2023-03-12T02:33:53;100367.81;;;4.62;50.52
78337;BME280;67610;51.588;7.002;2023-03-12T02:36:21;100365.09;;;4.64;50.10
78337;BME280;67610;51.588;7.002;2023-03-12T02:38:51;100373.97;;;4.61;49.88
78337;BME280;67610;51.588;7.002;2023-03-12T02:46:35;100372.06;;;4.63;50.04
78337;BME280;67610;51.588;7.002;2023-03-12T02:49:02;100365.44;;;4.59;50.22
78337;BME280;67610;51.588;7.002;2023-03-12T02:51:28;100362.00;;;4.59;50.17
78337;BME280;67610;51.588;7.002;2023-03-12T02:53:53;100365.69;;;4.56;50.11
78337;BME280;67610;51.588;7.002;2023-03-12T02:56:21;100361.06;;;4.60;50.05
78337;BME280;67610;51.588;7.002;2023-03-12T02:58:47;100355.25;;;4.56;50.13
78337;BME280;67610;51.588;7.002;2023-03-12T03:01:13;100358.56;;;4.58;50.09
78337;BME280;67610;51.588;7.002;2023-03-12T03:03:38;100345.09;;;4.53;50.35
78337;BME280;67610;51.588;7.002;2023-03-12T03:06:04;100335.84;;;4.49;50.34
78337;BME280;67610;51.588;7.002;2023-03-12T03:08:29;100342.03;;;4.48;50.31
78337;BME280;67610;51.588;7.002;2023-03-12T03:10:54;100345.00;;;4.44;50.56
78337;BME280;67610;51.588;7.002;2023-03-12T03:13:20;100341.78;;;4.40;50.71
78337;BME280;67610;51.588;7.002;2023-03-12T03:15:45;100339.19;;;4.40;50.49
78337;BME280;67610;51.588;7.002;2023-03-12T03:18:10;100333.28;;;4.38;50.83
78337;BME280;67610;51.588;7.002;2023-03-12T03:20:36;100331.50;;;4.39;50.41
78337;BME280;67610;51.588;7.002;2023-03-12T03:23:01;100325.69;;;4.35;50.73
78337;BME280;67610;51.588;7.002;2023-03-12T03:25:27;100322.28;;;4.35;50.46
78337;BME280;67610;51.588;7.002;2023-03-12T03:27:52;100328.44;;;4.34;50.35
78337;BME280;67610;51.588;7.002;2023-03-12T03:30:18;100320.28;;;4.27;50.71
78337;BME280;67610;51.588;7.002;2023-03-12T03:32:43;100321.09;;;4.28;50.64
78337;BME280;67610;51.588;7.002;2023-03-12T03:35:08;100319.56;;;4.25;50.31
78337;BME280;67610;51.588;7.002;2023-03-12T03:37:34;100322.41;;;4.22;50.69
78337;BME280;67610;51.588;7.002;2023-03-12T03:39:59;100311.06;;;4.23;50.91
78337;BME280;67610;51.588;7.002;2023-03-12T03:42:25;100312.69;;;4.24;51.07
78337;BME280;67610;51.588;7.002;2023-03-12T03:44:50;100320.13;;;4.29;51.00
78337;BME280;67610;51.588;7.002;2023-03-12T03:47:15;100303.81;;;4.27;51.10
78337;BME280;67610;51.588;7.002;2023-03-12T03:49:41;100309.63;;;4.30;51.54
78337;BME280;67610;51.588;7.002;2023-03-12T03:52:06;100311.88;;;4.35;51.33
78337;BME280;67610;51.588;7.002;2023-03-12T03:54:32;100312.56;;;4.37;51.42
78337;BME280;67610;51.588;7.002;2023-03-12T03:56:58;100313.06;;;4.42;51.24
78337;BME280;67610;51.588;7.002;2023-03-12T03:59:24;100313.75;;;4.44;51.24
78337;BME280;67610;51.588;7.002;2023-03-12T04:01:50;100309.34;;;4.44;51.17
78337;BME280;67610;51.588;7.002;2023-03-12T04:04:16;100310.78;;;4.48;51.03
78337;BME280;67610;51.588;7.002;2023-03-12T04:06:41;100299.16;;;4.52;50.84
78337;BME280;67610;51.588;7.002;2023-03-12T04:09:07;100312.31;;;4.51;50.94
78337;BME280;67610;51.588;7.002;2023-03-12T04:11:32;100298.47;;;4.50;50.94
78337;BME280;67610;51.588;7.002;2023-03-12T04:13:58;100301.78;;;4.52;51.11
78337;BME280;67610;51.588;7.002;2023-03-12T04:16:23;100294.53;;;4.56;51.06
78337;BME280;67610;51.588;7.002;2023-03-12T04:18:48;100296.06;;;4.58;50.76
78337;BME280;67610;51.588;7.002;2023-03-12T04:21:15;100302.94;;;4.59;51.00
78337;BME280;67610;51.588;7.002;2023-03-12T04:23:41;100297.50;;;4.62;51.00
78337;BME280;67610;51.588;7.002;2023-03-12T04:26:06;100290.97;;;4.68;50.65
78337;BME280;67610;51.588;7.002;2023-03-12T04:28:33;100285.06;;;4.66;50.84
78337;BME280;67610;51.588;7.002;2023-03-12T04:31:01;100284.91;;;4.67;50.97
78337;BME280;67610;51.588;7.002;2023-03-12T04:33:30;100281.94;;;4.72;50.58
78337;BME280;67610;51.588;7.002;2023-03-12T04:35:56;100275.94;;;4.71;50.79
78337;BME280;67610;51.588;7.002;2023-03-12T04:38:23;100275.78;;;4.73;50.39
78337;BME280;67610;51.588;7.002;2023-03-12T04:41:05;100273.19;;;4.73;50.71
78337;BME280;67610;51.588;7.002;2023-03-12T04:43:32;100284.44;;;4.73;50.81
78337;BME280;67610;51.588;7.002;2023-03-12T04:45:58;100287.75;;;4.75;50.74
78337;BME280;67610;51.588;7.002;2023-03-12T04:48:24;100289.16;;;4.79;50.61
78337;BME280;67610;51.588;7.002;2023-03-12T04:50:50;100274.22;;;4.81;50.87
78337;BME280;67610;51.588;7.002;2023-03-12T04:53:15;100268.91;;;4.83;50.76
78337;BME280;67610;51.588;7.002;2023-03-12T04:55:41;100265.22;;;4.85;50.56
78337;BME280;67610;51.588;7.002;2023-03-12T04:58:06;100263.56;;;4.84;50.68
78337;BME280;67610;51.588;7.002;2023-03-12T05:00:32;100257.03;;;4.90;50.57
78337;BME280;67610;51.588;7.002;2023-03-12T05:02:57;100254.28;;;4.91;50.46
78337;BME280;67610;51.588;7.002;2023-03-12T05:05:23;100243.50;;;4.96;50.32
78337;BME280;67610;51.588;7.002;2023-03-12T05:07:48;100243.34;;;4.97;50.34
78337;BME280;67610;51.588;7.002;2023-03-12T05:10:13;100234.75;;;4.97;50.36
78337;BME280;67610;51.588;7.002;2023-03-12T05:12:39;100241.59;;;4.98;50.57
78337;BME280;67610;51.588;7.002;2023-03-12T05:15:05;100239.56;;;5.02;50.51
78337;BME280;67610;51.588;7.002;2023-03-12T05:17:30;100228.19;;;5.03;50.52
78337;BME280;67610;51.588;7.002;2023-03-12T05:19:55;100223.56;;;5.06;49.99
78337;BME280;67610;51.588;7.002;2023-03-12T05:22:21;100220.25;;;5.04;50.09
78337;BME280;67610;51.588;7.002;2023-03-12T05:24:46;100226.03;;;5.08;50.18
78337;BME280;67610;51.588;7.002;2023-03-12T05:27:11;100233.97;;;5.06;50.17
78337;BME280;67610;51.588;7.002;2023-03-12T05:29:37;100238.13;;;5.09;50.33
78337;BME280;67610;51.588;7.002;2023-03-12T05:32:02;100237.00;;;5.11;50.46
78337;BME280;67610;51.588;7.002;2023-03-12T05:34:29;100227.16;;;5.15;50.33
78337;BME280;67610;51.588;7.002;2023-03-12T05:36:58;100232.38;;;5.15;50.21
78337;BME280;67610;51.588;7.002;2023-03-12T05:39:25;100232.94;;;5.18;50.12
78337;BME280;67610;51.588;7.002;2023-03-12T05:41:51;100227.63;;;5.20;50.17
78337;BME280;67610;51.588;7.002;2023-03-12T05:44:23;100217.91;;;5.22;49.90
78337;BME280;67610;51.588;7.002;2023-03-12T05:46:48;100218.19;;;5.28;50.06
78337;BME280;67610;51.588;7.002;2023-03-12T05:49:14;100223.41;;;5.28;49.87
78337;BME280;67610;51.588;7.002;2023-03-12T05:51:39;100220.56;;;5.31;50.13
78337;BME280;67610;51.588;7.002;2023-03-12T05:54:06;100211.97;;;5.40;49.71
78337;BME280;67610;51.588;7.002;2023-03-12T05:56:31;100192.19;;;5.38;50.13
78337;BME280;67610;51.588;7.002;2023-03-12T05:58:56;100190.81;;;5.34;50.62
78337;BME280;67610;51.588;7.002;2023-03-12T06:01:25;100173.75;;;5.30;50.83
78337;BME280;67610;51.588;7.002;2023-03-12T06:03:50;100185.97;;;5.29;51.31
78337;BME280;67610;51.588;7.002;2023-03-12T06:06:17;100174.81;;;5.27;51.11
78337;BME280;67610;51.588;7.002;2023-03-12T06:08:43;100171.13;;;5.30;51.27
78337;BME280;67610;51.588;7.002;2023-03-12T06:11:09;100164.53;;;5.26;51.44
78337;BME280;67610;51.588;7.002;2023-03-12T06:13:34;100155.25;;;5.33;51.38
78337;BME280;67610;51.588;7.002;2023-03-12T06:16:05;100149.34;;;5.31;51.64
78337;BME280;67610;51.588;7.002;2023-03-12T06:18:32;100157.41;;;5.28;51.76
78337;BME280;67610;51.588;7.002;2023-03-12T06:21:27;100159.47;;;5.24;52.03
78337;BME280;67610;51.588;7.002;2023-03-12T06:23:53;100144.25;;;5.29;52.11
78337;BME280;67610;51.588;7.002;2023-03-12T06:26:20;100154.16;;;5.35;52.15
78337;BME280;67610;51.588;7.002;2023-03-12T06:28:46;100161.84;;;5.37;52.23
78337;BME280;67610;51.588;7.002;2023-03-12T06:31:12;100160.66;;;5.41;52.44
78337;BME280;67610;51.588;7.002;2023-03-12T06:33:38;100165.88;;;5.41;52.43
78337;BME280;67610;51.588;7.002;2023-03-12T06:36:05;100165.03;;;5.40;52.86
78337;BME280;67610;51.588;7.002;2023-03-12T06:38:31;100169.16;;;5.43;52.84
78337;BME280;67610;51.588;7.002;2023-03-12T06:41:05;100157.75;;;5.44;52.89
78337;BME280;67610;51.588;7.002;2023-03-12T06:43:33;100150.13;;;5.52;52.72
78337;BME280;67610;51.588;7.002;2023-03-12T06:45:59;100160.72;;;5.60;52.73
78337;BME280;67610;51.588;7.002;2023-03-12T06:48:27;100158.25;;;5.58;52.87
78337;BME280;67610;51.588;7.002;2023-03-12T06:50:53;100148.53;;;5.70;52.50
78337;BME280;67610;51.588;7.002;2023-03-12T06:53:19;100144.81;;;5.63;52.66
78337;BME280;67610;51.588;7.002;2023-03-12T06:55:45;100145.06;;;5.60;53.11
78337;BME280;67610;51.588;7.002;2023-03-12T06:58:11;100151.94;;;5.61;52.89
78337;BME280;67610;51.588;7.002;2023-03-12T07:00:37;100154.09;;;5.56;53.06
78337;BME280;67610;51.588;7.002;2023-03-12T07:03:02;100152.19;;;5.58;53.16
78337;BME280;67610;51.588;7.002;2023-03-12T07:05:28;100153.06;;;5.68;53.29
78337;BME280;67610;51.588;7.002;2023-03-12T07:07:54;100151.84;;;5.72;52.97
78337;BME280;67610;51.588;7.002;2023-03-12T07:10:19;100151.56;;;5.75;52.95
78337;BME280;67610;51.588;7.002;2023-03-12T07:12:45;100152.38;;;5.66;53.76
78337;BME280;67610;51.588;7.002;2023-03-12T07:15:10;100154.41;;;5.62;54.16
78337;BME280;67610;51.588;7.002;2023-03-12T07:17:36;100151.41;;;5.67;54.56
78337;BME280;67610;51.588;7.002;2023-03-12T07:20:01;100153.88;;;5.69;55.10
78337;BME280;67610;51.588;7.002;2023-03-12T07:22:27;100156.34;;;5.70;56.63
78337;BME280;67610;51.588;7.002;2023-03-12T07:24:52;100159.38;;;5.65;55.98
78337;BME280;67610;51.588;7.002;2023-03-12T07:27:18;100151.69;;;5.64;56.93
78337;BME280;67610;51.588;7.002;2023-03-12T07:29:43;100149.47;;;5.59;57.10
78337;BME280;67610;51.588;7.002;2023-03-12T07:32:10;100147.13;;;5.56;58.02
78337;BME280;67610;51.588;7.002;2023-03-12T07:34:35;100145.44;;;5.55;58.23
78337;BME280;67610;51.588;7.002;2023-03-12T07:37:00;100146.97;;;5.58;58.41
78337;BME280;67610;51.588;7.002;2023-03-12T07:39:26;100147.94;;;5.57;58.59
78337;BME280;67610;51.588;7.002;2023-03-12T07:41:51;100138.75;;;5.62;59.08
78337;BME280;67610;51.588;7.002;2023-03-12T07:44:17;100130.38;;;5.59;59.94
78337;BME280;67610;51.588;7.002;2023-03-12T07:46:42;100125.84;;;5.61;59.62
78337;BME280;67610;51.588;7.002;2023-03-12T07:49:07;100128.47;;;5.61;60.08
78337;BME280;67610;51.588;7.002;2023-03-12T07:51:33;100125.44;;;5.65;60.45
78337;BME280;67610;51.588;7.002;2023-03-12T07:53:58;100125.31;;;5.67;60.79
78337;BME280;67610;51.588;7.002;2023-03-12T07:56:24;100126.81;;;5.70;60.80
78337;BME280;67610;51.588;7.002;2023-03-12T07:58:49;100128.88;;;5.66;60.48
78337;BME280;67610;51.588;7.002;2023-03-12T08:01:14;100114.06;;;5.76;61.04
78337;BME280;67610;51.588;7.002;2023-03-12T08:03:40;100111.66;;;5.84;60.89
78337;BME280;67610;51.588;7.002;2023-03-12T08:06:05;100106.81;;;5.80;60.99
78337;BME280;67610;51.588;7.002;2023-03-12T08:08:31;100105.84;;;5.81;61.17
78337;BME280;67610;51.588;7.002;2023-03-12T08:10:58;100103.94;;;5.83;62.38
78337;BME280;67610;51.588;7.002;2023-03-12T08:13:24;100109.75;;;5.86;61.62
78337;BME280;67610;51.588;7.002;2023-03-12T08:15:51;100101.38;;;6.02;61.49
78337;BME280;67610;51.588;7.002;2023-03-12T08:18:17;100104.13;;;6.00;61.28
78337;BME280;67610;51.588;7.002;2023-03-12T08:20:43;100103.16;;;6.01;61.71
78337;BME280;67610;51.588;7.002;2023-03-12T08:23:09;100105.66;;;6.03;62.26
78337;BME280;67610;51.588;7.002;2023-03-12T08:25:34;100099.34;;;6.05;61.85
78337;BME280;67610;51.588;7.002;2023-03-12T08:28:04;100101.81;;;6.16;61.68
78337;BME280;67610;51.588;7.002;2023-03-12T08:30:30;100108.69;;;6.27;61.42
78337;BME280;67610;51.588;7.002;2023-03-12T08:32:56;100105.13;;;6.18;61.70
78337;BME280;67610;51.588;7.002;2023-03-12T08:35:22;100106.47;;;6.22;61.68
78337;BME280;67610;51.588;7.002;2023-03-12T08:37:47;100106.22;;;6.25;62.10
78337;BME280;67610;51.588;7.002;2023-03-12T08:40:12;100103.34;;;6.28;62.03
78337;BME280;67610;51.588;7.002;2023-03-12T08:42:42;100089.16;;;6.41;62.08
78337;BME280;67610;51.588;7.002;2023-03-12T08:45:09;100099.06;;;6.47;62.15
78337;BME280;67610;51.588;7.002;2023-03-12T08:47:36;100096.03;;;6.51;62.27
78337;BME280;67610;51.588;7.002;2023-03-12T08:50:04;100095.78;;;6.54;62.19
78337;BME280;67610;51.588;7.002;2023-03-12T08:52:29;100090.25;;;6.57;62.25
78337;BME280;67610;51.588;7.002;2023-03-12T08:54:55;100081.88;;;6.63;62.29
78337;BME280;67610;51.588;7.002;2023-03-12T08:57:20;100086.09;;;6.74;62.75
78337;BME280;67610;51.588;7.002;2023-03-12T08:59:46;100080.59;;;6.77;62.57
78337;BME280;67610;51.588;7.002;2023-03-12T09:02:23;100088.28;;;6.88;63.07
78337;BME280;67610;51.588;7.002;2023-03-12T09:04:49;100085.81;;;6.96;62.45
78337;BME280;67610;51.588;7.002;2023-03-12T09:07:15;100080.28;;;6.89;63.06
78337;BME280;67610;51.588;7.002;2023-03-12T09:09:44;100085.00;;;6.86;63.08
78337;BME280;67610;51.588;7.002;2023-03-12T09:12:10;100081.78;;;6.92;62.72
78337;BME280;67610;51.588;7.002;2023-03-12T09:14:35;100076.97;;;6.97;62.89
78337;BME280;67610;51.588;7.002;2023-03-12T09:17:01;100081.38;;;6.96;62.82
78337;BME280;67610;51.588;7.002;2023-03-12T09:19:27;100083.88;;;6.98;63.59
78337;BME280;67610;51.588;7.002;2023-03-12T09:21:52;100062.78;;;6.99;64.48
78337;BME280;67610;51.588;7.002;2023-03-12T09:24:18;100072.53;;;7.07;64.19
78337;BME280;67610;51.588;7.002;2023-03-12T09:26:43;100072.41;;;6.99;64.92
78337;BME280;67610;51.588;7.002;2023-03-12T09:29:08;100073.78;;;7.03;65.06
78337;BME280;67610;51.588;7.002;2023-03-12T09:31:34;100075.59;;;7.02;65.42
78337;BME280;67610;51.588;7.002;2023-03-12T09:34:01;100081.94;;;7.00;65.96
78337;BME280;67610;51.588;7.002;2023-03-12T09:36:26;100096.63;;;7.01;66.33
78337;BME280;67610;51.588;7.002;2023-03-12T09:38:53;100096.38;;;6.94;66.45
78337;BME280;67610;51.588;7.002;2023-03-12T09:41:20;100096.53;;;6.93;67.13
78337;BME280;67610;51.588;7.002;2023-03-12T09:43:58;100099.69;;;6.87;66.79
78337;BME280;67610;51.588;7.002;2023-03-12T09:46:46;100094.75;;;6.84;67.36
78337;BME280;67610;51.588;7.002;2023-03-12T09:49:36;100098.88;;;6.86;67.62
78337;BME280;67610;51.588;7.002;2023-03-12T09:52:17;100099.00;;;6.85;67.95
78337;BME280;67610;51.588;7.002;2023-03-12T09:54:58;100087.88;;;6.83;67.89
78337;BME280;67610;51.588;7.002;2023-03-12T09:57:25;100091.31;;;6.83;67.71
78337;BME280;67610;51.588;7.002;2023-03-12T09:59:53;100094.34;;;6.88;68.22
78337;BME280;67610;51.588;7.002;2023-03-12T10:04:55;100104.50;;;6.91;69.47
78337;BME280;67610;51.588;7.002;2023-03-12T10:07:30;100105.06;;;6.95;69.15
78337;BME280;67610;51.588;7.002;2023-03-12T10:13:07;100113.72;;;6.95;69.70
78337;BME280;67610;51.588;7.002;2023-03-12T10:18:43;100111.63;;;6.99;70.15
78337;BME280;67610;51.588;7.002;2023-03-12T10:21:22;100102.00;;;6.99;70.50
78337;BME280;67610;51.588;7.002;2023-03-12T10:26:39;100098.13;;;7.13;70.28
78337;BME280;67610;51.588;7.002;2023-03-12T10:31:58;100098.91;;;7.23;70.71
78337;BME280;67610;51.588;7.002;2023-03-12T10:37:11;100103.56;;;7.29;70.96
78337;BME280;67610;51.588;7.002;2023-03-12T10:39:38;100114.56;;;7.33;70.49
78337;BME280;67610;51.588;7.002;2023-03-12T10:42:18;100113.31;;;7.37;70.66
78337;BME280;67610;51.588;7.002;2023-03-12T10:44:50;100104.78;;;7.35;70.74
78337;BME280;67610;51.588;7.002;2023-03-12T10:47:37;100118.69;;;7.35;70.97
78337;BME280;67610;51.588;7.002;2023-03-12T10:52:41;100129.53;;;7.40;70.94
78337;BME280;67610;51.588;7.002;2023-03-12T10:55:26;100124.69;;;7.45;71.40
78337;BME280;67610;51.588;7.002;2023-03-12T10:57:53;100123.59;;;7.48;71.12
78337;BME280;67610;51.588;7.002;2023-03-12T11:00:28;100126.47;;;7.45;71.45
78337;BME280;67610;51.588;7.002;2023-03-12T11:03:04;100125.53;;;7.46;72.45
78337;BME280;67610;51.588;7.002;2023-03-12T11:05:46;100132.44;;;7.47;72.24
78337;BME280;67610;51.588;7.002;2023-03-12T11:08:23;100133.22;;;7.47;72.23
78337;BME280;67610;51.588;7.002;2023-03-12T11:10:51;100132.50;;;7.55;72.45
78337;BME280;67610;51.588;7.002;2023-03-12T11:13:23;100135.69;;;7.58;72.35
78337;BME280;67610;51.588;7.002;2023-03-12T11:15:49;100127.91;;;7.66;72.34
78337;BME280;67610;51.588;7.002;2023-03-12T11:23:28;100115.41;;;7.88;72.82
78337;BME280;67610;51.588;7.002;2023-03-12T11:26:17;100121.69;;;7.95;72.69
78337;BME280;67610;51.588;7.002;2023-03-12T11:28:44;100115.56;;;8.04;72.83
78337;BME280;67610;51.588;7.002;2023-03-12T11:31:24;100111.00;;;8.06;72.82
78337;BME280;67610;51.588;7.002;2023-03-12T11:33:53;100112.06;;;8.13;72.71
78337;BME280;67610;51.588;7.002;2023-03-12T11:45:03;100107.44;;;8.42;72.53
78337;BME280;67610;51.588;7.002;2023-03-12T11:53:11;100112.03;;;8.58;72.67
78337;BME280;67610;51.588;7.002;2023-03-12T11:56:15;100107.22;;;8.71;72.60
78337;BME280;67610;51.588;7.002;2023-03-12T11:59:00;100112.66;;;8.77;72.50
78337;BME280;67610;51.588;7.002;2023-03-12T12:14:32;100106.47;;;9.04;72.34
78337;BME280;67610;51.588;7.002;2023-03-12T12:17:12;100111.38;;;9.07;72.49
78337;BME280;67610;51.588;7.002;2023-03-12T12:20:03;100106.88;;;9.17;72.67
78337;BME280;67610;51.588;7.002;2023-03-12T12:25:27;100102.47;;;9.26;72.60
78337;BME280;67610;51.588;7.002;2023-03-12T12:35:54;100083.63;;;9.64;72.68
78337;BME280;67610;51.588;7.002;2023-03-12T12:38:24;100074.94;;;9.71;72.54
78337;BME280;67610;51.588;7.002;2023-03-12T12:41:14;100073.53;;;9.85;72.54
78337;BME280;67610;51.588;7.002;2023-03-12T12:43:44;100066.97;;;9.97;72.34
78337;BME280;67610;51.588;7.002;2023-03-12T12:46:17;100070.66;;;10.12;72.23
78337;BME280;67610;51.588;7.002;2023-03-12T12:48:52;100071.63;;;10.19;71.98
78337;BME280;67610;51.588;7.002;2023-03-12T12:51:31;100063.91;;;10.26;72.08
78337;BME280;67610;51.588;7.002;2023-03-12T12:56:39;100058.81;;;10.32;72.11
78337;BME280;67610;51.588;7.002;2023-03-12T13:02:23;100065.75;;;10.49;71.79
78337;BME280;67610;51.588;7.002;2023-03-12T13:04:54;100062.09;;;10.50;71.84
78337;BME280;67610;51.588;7.002;2023-03-12T13:09:48;100061.28;;;10.58;72.01
78337;BME280;67610;51.588;7.002;2023-03-12T13:12:30;100058.34;;;10.61;72.49
78337;BME280;67610;51.588;7.002;2023-03-12T13:14:57;100059.63;;;10.65;71.98
78337;BME280;67610;51.588;7.002;2023-03-12T13:34:00;100030.34;;;11.39;71.17
78337;BME280;67610;51.588;7.002;2023-03-12T13:36:35;100014.78;;;11.52;70.71
78337;BME280;67610;51.588;7.002;2023-03-12T13:41:41;100019.31;;;11.74;70.38
78337;BME280;67610;51.588;7.002;2023-03-12T13:52:49;100015.94;;;12.11;69.21
78337;BME280;67610;51.588;7.002;2023-03-12T13:55:24;100009.75;;;12.19;69.05
78337;BME280;67610;51.588;7.002;2023-03-12T13:58:14;100014.34;;;12.25;69.05
78337;BME280;67610;51.588;7.002;2023-03-12T14:00:55;100006.53;;;12.31;68.75
78337;BME280;67610;51.588;7.002;2023-03-12T14:03:30;100005.56;;;12.32;68.68
78337;BME280;67610;51.588;7.002;2023-03-12T14:06:19;99994.72;;;12.42;68.48
78337;BME280;67610;51.588;7.002;2023-03-12T14:11:38;100004.78;;;12.46;68.19
78337;BME280;67610;51.588;7.002;2023-03-12T14:16:45;99994.13;;;12.54;68.04
78337;BME280;67610;51.588;7.002;2023-03-12T14:19:15;99990.75;;;12.60;67.60
78337;BME280;67610;51.588;7.002;2023-03-12T14:21:43;100000.97;;;12.63;67.08
78337;BME280;67610;51.588;7.002;2023-03-12T14:24:40;99996.22;;;12.59;66.79
78337;BME280;67610;51.588;7.002;2023-03-12T14:27:16;99994.59;;;12.58;66.88
78337;BME280;67610;51.588;7.002;2023-03-12T14:29:45;99986.94;;;12.63;66.58
78337;BME280;67610;51.588;7.002;2023-03-12T14:32:23;99992.06;;;12.65;65.74
78337;BME280;67610;51.588;7.002;2023-03-12T14:37:51;99995.69;;;12.63;65.72
78337;BME280;67610;51.588;7.002;2023-03-12T14:40:23;100014.63;;;12.67;65.88
78337;BME280;67610;51.588;7.002;2023-03-12T14:42:50;100024.53;;;12.65;65.82
78337;BME280;67610;51.588;7.002;2023-03-12T14:45:19;100020.25;;;12.64;65.68
78337;BME280;67610;51.588;7.002;2023-03-12T14:47:51;100023.97;;;12.70;65.79
78337;BME280;67610;51.588;7.002;2023-03-12T14:50:23;100021.47;;;12.76;65.40
78337;BME280;67610;51.588;7.002;2023-03-12T14:52:49;100029.38;;;12.76;65.69
78337;BME280;67610;51.588;7.002;2023-03-12T14:55:18;100023.56;;;12.81;65.65
78337;BME280;67610;51.588;7.002;2023-03-12T14:57:44;100021.22;;;12.86;65.49
78337;BME280;67610;51.588;7.002;2023-03-12T15:00:22;100017.75;;;12.85;65.49
78337;BME280;67610;51.588;7.002;2023-03-12T15:02:48;100015.72;;;12.87;65.23